sensor_id;sensor_type;location;lat;lon;timestamp;temperature;humidity
26051;DHT22;13825;53.496;10.020;2023-08-17T00:01:27;17.70;99.90
26051;DHT22;13825;53.496;10.020;2023-08-17T00:03:54;17.80;99.90
26051;DHT22;13825;53.496;10.020;2023-08-17T00:06:21;17.80;99.90
26051;DHT22;13825;53.496;10.020;2023-08-17T00:08:49;17.80;99.90
26051;DHT22;13825;53.496;10.020;2023-08-17T00:11:16;17.70;97.40
26051;DHT22;13825;53.496;10.020;2023-08-17T00:13:43;17.80;99.90
26051;DHT22;13825;53.496;10.020;2023-08-17T00:16:10;17.70;99.90
26051;DHT22;13825;53.496;10.020;2023-08-17T00:18:40;17.80;31.70
26051;DHT22;13825;53.496;10.020;2023-08-17T00:21:08;17.80;29.60
26051;DHT22;13825;53.496;10.020;2023-08-17T00:23:38;17.80;49.40
26051;DHT22;13825;53.496;10.020;2023-08-17T00:26:05;17.80;73.40
26051;DHT22;13825;53.496;10.020;2023-08-17T00:28:32;17.70;99.90
26051;DHT22;13825;53.496;10.020;2023-08-17T00:31:00;17.70;99.70
26051;DHT22;13825;53.496;10.020;2023-08-17T00:33:27;17.60;24.60
26051;DHT22;13825;53.496;10.020;2023-08-17T00:35:55;17.70;10.80
26051;DHT22;13825;53.496;10.020;2023-08-17T00:38:23;17.70;1.00
26051;DHT22;13825;53.496;10.020;2023-08-17T00:40:50;17.70;1.00
26051;DHT22;13825;53.496;10.020;2023-08-17T00:43:17;17.70;1.00
26051;DHT22;13825;53.496;10.020;2023-08-17T00:45:45;17.60;1.00
26051;DHT22;13825;53.496;10.020;2023-08-17T00:48:13;17.60;1.00
26051;DHT22;13825;53.496;10.020;2023-08-17T00:50:45;17.60;1.00
26051;DHT22;13825;53.496;10.020;2023-08-17T00:53:18;17.70;1.00
26051;DHT22;13825;53.496;10.020;2023-08-17T00:55:46;17.60;1.00
26051;DHT22;13825;53.496;10.020;2023-08-17T00:58:14;17.60;1.00
26051;DHT22;13825;53.496;10.020;2023-08-17T01:00:43;17.60;1.00
26051;DHT22;13825;53.496;10.020;2023-08-17T01:03:12;17.60;1.00
26051;DHT22;13825;53.496;10.020;2023-08-17T01:05:39;17.60;1.00
26051;DHT22;13825;53.496;10.020;2023-08-17T01:08:08;17.60;1.00
26051;DHT22;13825;53.496;10.020;2023-08-17T01:10:45;17.70;1.00
26051;DHT22;13825;53.496;10.020;2023-08-17T01:13:18;17.70;1.00
26051;DHT22;13825;53.496;10.020;2023-08-17T01:15:50;17.60;1.00
26051;DHT22;13825;53.496;10.020;2023-08-17T01:18:23;17.60;1.00
26051;DHT22;13825;53.496;10.020;2023-08-17T01:20:52;17.60;1.00
26051;DHT22;13825;53.496;10.020;2023-08-17T01:23:21;17.70;1.00
26051;DHT22;13825;53.496;10.020;2023-08-17T01:25:52;17.70;1.00
26051;DHT22;13825;53.496;10.020;2023-08-17T01:28:23;17.70;99.90
26051;DHT22;13825;53.496;10.020;2023-08-17T01:30:57;17.80;99.90
26051;DHT22;13825;53.496;10.020;2023-08-17T01:33:28;17.80;99.90
26051;DHT22;13825;53.496;10.020;2023-08-17T01:36:05;17.80;99.90
26051;DHT22;13825;53.496;10.020;2023-08-17T01:38:36;17.80;99.90
26051;DHT22;13825;53.496;10.020;2023-08-17T01:41:04;17.90;1.00
26051;DHT22;13825;53.496;10.020;2023-08-17T01:43:32;17.80;99.90
26051;DHT22;13825;53.496;10.020;2023-08-17T01:46:01;17.80;32.10
26051;DHT22;13825;53.496;10.020;2023-08-17T01:48:28;17.80;99.90
26051;DHT22;13825;53.496;10.020;2023-08-17T01:50:55;17.90;99.90
26051;DHT22;13825;53.496;10.020;2023-08-17T01:53:22;17.80;1.00
26051;DHT22;13825;53.496;10.020;2023-08-17T01:55:50;17.80;95.40
26051;DHT22;13825;53.496;10.020;2023-08-17T01:58:17;17.80;90.50
26051;DHT22;13825;53.496;10.020;2023-08-17T02:00:44;17.80;1.00
26051;DHT22;13825;53.496;10.020;2023-08-17T02:03:11;17.80;1.00
26051;DHT22;13825;53.496;10.020;2023-08-17T02:05:39;17.80;99.90
26051;DHT22;13825;53.496;10.020;2023-08-17T02:08:10;17.80;99.90
26051;DHT22;13825;53.496;10.020;2023-08-17T02:10:37;17.80;99.90
26051;DHT22;13825;53.496;10.020;2023-08-17T02:13:06;17.80;99.90
26051;DHT22;13825;53.496;10.020;2023-08-17T02:15:38;17.80;99.90
26051;DHT22;13825;53.496;10.020;2023-08-17T02:18:05;17.80;99.90
26051;DHT22;13825;53.496;10.020;2023-08-17T02:20:32;17.70;99.90
26051;DHT22;13825;53.496;10.020;2023-08-17T02:22:59;17.60;99.90
26051;DHT22;13825;53.496;10.020;2023-08-17T02:25:27;17.60;99.90
26051;DHT22;13825;53.496;10.020;2023-08-17T02:28:00;17.50;99.90
26051;DHT22;13825;53.496;10.020;2023-08-17T02:30:29;17.50;1.00
26051;DHT22;13825;53.496;10.020;2023-08-17T02:32:57;17.50;1.00
26051;DHT22;13825;53.496;10.020;2023-08-17T02:35:24;17.50;99.90
26051;DHT22;13825;53.496;10.020;2023-08-17T02:37:51;17.40;99.90
26051;DHT22;13825;53.496;10.020;2023-08-17T02:40:18;17.40;1.00
26051;DHT22;13825;53.496;10.020;2023-08-17T02:42:45;17.40;1.00
26051;DHT22;13825;53.496;10.020;2023-08-17T02:45:12;17.40;1.00
26051;DHT22;13825;53.496;10.020;2023-08-17T02:47:41;17.30;16.90
26051;DHT22;13825;53.496;10.020;2023-08-17T02:50:09;17.40;99.90
26051;DHT22;13825;53.496;10.020;2023-08-17T02:52:36;17.30;99.90
26051;DHT22;13825;53.496;10.020;2023-08-17T02:55:07;17.40;99.90
26051;DHT22;13825;53.496;10.020;2023-08-17T02:57:34;17.40;99.90
26051;DHT22;13825;53.496;10.020;2023-08-17T03:00:01;17.30;99.90
26051;DHT22;13825;53.496;10.020;2023-08-17T03:02:29;17.40;99.90
26051;DHT22;13825;53.496;10.020;2023-08-17T03:04:57;17.40;99.90
26051;DHT22;13825;53.496;10.020;2023-08-17T03:07:24;17.40;99.90
26051;DHT22;13825;53.496;10.020;2023-08-17T03:09:52;17.50;99.90
26051;DHT22;13825;53.496;10.020;2023-08-17T03:12:34;17.40;99.90
26051;DHT22;13825;53.496;10.020;2023-08-17T03:15:03;17.40;1.00
26051;DHT22;13825;53.496;10.020;2023-08-17T03:17:30;17.50;99.90
26051;DHT22;13825;53.496;10.020;2023-08-17T03:20:05;17.50;1.00
26051;DHT22;13825;53.496;10.020;2023-08-17T03:22:34;17.40;99.90
26051;DHT22;13825;53.496;10.020;2023-08-17T03:25:01;17.40;99.90
26051;DHT22;13825;53.496;10.020;2023-08-17T03:27:29;17.50;1.00
26051;DHT22;13825;53.496;10.020;2023-08-17T03:29:56;17.50;1.00
26051;DHT22;13825;53.496;10.020;2023-08-17T03:32:29;17.50;1.00
26051;DHT22;13825;53.496;10.020;2023-08-17T03:34:57;17.50;99.90
26051;DHT22;13825;53.496;10.020;2023-08-17T03:37:25;17.50;1.00
26051;DHT22;13825;53.496;10.020;2023-08-17T03:39:52;17.60;1.00
26051;DHT22;13825;53.496;10.020;2023-08-17T03:42:19;17.60;1.00
26051;DHT22;13825;53.496;10.020;2023-08-17T03:44:48;17.60;1.00
26051;DHT22;13825;53.496;10.020;2023-08-17T03:47:16;17.60;1.00
26051;DHT22;13825;53.496;10.020;2023-08-17T03:49:43;17.60;1.00
26051;DHT22;13825;53.496;10.020;2023-08-17T03:52:15;17.50;1.00
26051;DHT22;13825;53.496;10.020;2023-08-17T03:54:50;17.50;1.00
26051;DHT22;13825;53.496;10.020;2023-08-17T03:57:17;17.50;1.00
26051;DHT22;13825;53.496;10.020;2023-08-17T03:59:47;17.50;1.00
26051;DHT22;13825;53.496;10.020;2023-08-17T04:02:14;17.50;1.00
26051;DHT22;13825;53.496;10.020;2023-08-17T04:04:41;17.50;1.00
26051;DHT22;13825;53.496;10.020;2023-08-17T04:07:09;17.50;1.00
26051;DHT22;13825;53.496;10.020;2023-08-17T04:09:36;17.40;1.00
26051;DHT22;13825;53.496;10.020;2023-08-17T04:12:06;17.50;1.00
26051;DHT22;13825;53.496;10.020;2023-08-17T04:14:34;17.50;1.00
26051;DHT22;13825;53.496;10.020;2023-08-17T04:17:00;17.50;1.00
26051;DHT22;13825;53.496;10.020;2023-08-17T04:19:27;17.50;1.00
26051;DHT22;13825;53.496;10.020;2023-08-17T04:21:55;17.50;1.00
26051;DHT22;13825;53.496;10.020;2023-08-17T04:24:22;17.50;1.00
26051;DHT22;13825;53.496;10.020;2023-08-17T04:26:49;17.50;1.00
26051;DHT22;13825;53.496;10.020;2023-08-17T04:29:17;17.50;1.00
26051;DHT22;13825;53.496;10.020;2023-08-17T04:31:44;17.50;1.00
26051;DHT22;13825;53.496;10.020;2023-08-17T04:34:11;17.50;1.00
26051;DHT22;13825;53.496;10.020;2023-08-17T04:36:38;17.50;3.70
26051;DHT22;13825;53.496;10.020;2023-08-17T04:39:05;17.40;99.20
26051;DHT22;13825;53.496;10.020;2023-08-17T04:41:32;17.50;1.00
26051;DHT22;13825;53.496;10.020;2023-08-17T04:43:59;17.50;77.10
26051;DHT22;13825;53.496;10.020;2023-08-17T04:46:27;17.50;51.20
26051;DHT22;13825;53.496;10.020;2023-08-17T04:48:54;17.50;93.60
26051;DHT22;13825;53.496;10.020;2023-08-17T04:51:21;17.50;99.90
26051;DHT22;13825;53.496;10.020;2023-08-17T04:53:48;17.50;99.90
26051;DHT22;13825;53.496;10.020;2023-08-17T04:56:15;17.60;99.90
26051;DHT22;13825;53.496;10.020;2023-08-17T04:58:45;17.60;77.90
26051;DHT22;13825;53.496;10.020;2023-08-17T05:01:12;17.60;36.90
26051;DHT22;13825;53.496;10.020;2023-08-17T05:03:41;17.60;91.50
26051;DHT22;13825;53.496;10.020;2023-08-17T05:06:08;17.60;99.90
26051;DHT22;13825;53.496;10.020;2023-08-17T05:08:35;17.60;99.90
26051;DHT22;13825;53.496;10.020;2023-08-17T05:11:03;17.60;99.90
26051;DHT22;13825;53.496;10.020;2023-08-17T05:13:32;17.60;99.90
26051;DHT22;13825;53.496;10.020;2023-08-17T05:15:59;17.60;99.90
26051;DHT22;13825;53.496;10.020;2023-08-17T05:18:26;17.60;99.90
26051;DHT22;13825;53.496;10.020;2023-08-17T05:20:55;17.60;99.90
26051;DHT22;13825;53.496;10.020;2023-08-17T05:23:22;17.60;99.90
26051;DHT22;13825;53.496;10.020;2023-08-17T05:25:52;17.50;99.90
26051;DHT22;13825;53.496;10.020;2023-08-17T05:28:19;17.60;99.90
26051;DHT22;13825;53.496;10.020;2023-08-17T05:30:46;17.60;99.90
26051;DHT22;13825;53.496;10.020;2023-08-17T05:33:13;17.60;99.90
26051;DHT22;13825;53.496;10.020;2023-08-17T05:35:40;17.50;99.90
26051;DHT22;13825;53.496;10.020;2023-08-17T05:38:09;17.50;99.90
26051;DHT22;13825;53.496;10.020;2023-08-17T05:40:36;17.40;99.90
26051;DHT22;13825;53.496;10.020;2023-08-17T05:43:07;17.40;99.90
26051;DHT22;13825;53.496;10.020;2023-08-17T05:45:35;17.40;99.90
26051;DHT22;13825;53.496;10.020;2023-08-17T05:48:03;17.30;99.90
26051;DHT22;13825;53.496;10.020;2023-08-17T05:50:30;17.30;99.90
26051;DHT22;13825;53.496;10.020;2023-08-17T05:52:59;17.20;99.90
26051;DHT22;13825;53.496;10.020;2023-08-17T05:55:28;17.10;99.90
26051;DHT22;13825;53.496;10.020;2023-08-17T05:57:56;17.10;99.90
26051;DHT22;13825;53.496;10.020;2023-08-17T06:00:26;17.10;99.90
26051;DHT22;13825;53.496;10.020;2023-08-17T06:02:57;17.10;99.90
26051;DHT22;13825;53.496;10.020;2023-08-17T06:05:27;17.00;99.90
26051;DHT22;13825;53.496;10.020;2023-08-17T06:07:57;16.90;99.90
26051;DHT22;13825;53.496;10.020;2023-08-17T06:10:25;17.00;99.90
26051;DHT22;13825;53.496;10.020;2023-08-17T06:12:54;17.00;99.90
26051;DHT22;13825;53.496;10.020;2023-08-17T06:15:23;17.00;99.90
26051;DHT22;13825;53.496;10.020;2023-08-17T06:17:50;16.90;99.90
26051;DHT22;13825;53.496;10.020;2023-08-17T06:20:22;17.00;99.90
26051;DHT22;13825;53.496;10.020;2023-08-17T06:22:51;17.00;99.90
26051;DHT22;13825;53.496;10.020;2023-08-17T06:25:21;16.90;99.90
26051;DHT22;13825;53.496;10.020;2023-08-17T06:27:51;16.90;99.90
26051;DHT22;13825;53.496;10.020;2023-08-17T06:30:35;16.90;99.90
26051;DHT22;13825;53.496;10.020;2023-08-17T06:33:04;16.90;99.90
26051;DHT22;13825;53.496;10.020;2023-08-17T06:35:33;16.80;99.90
26051;DHT22;13825;53.496;10.020;2023-08-17T06:38:02;16.80;99.90
26051;DHT22;13825;53.496;10.020;2023-08-17T06:40:41;16.80;99.90
26051;DHT22;13825;53.496;10.020;2023-08-17T06:43:09;16.80;99.90
26051;DHT22;13825;53.496;10.020;2023-08-17T06:45:43;16.70;99.90
26051;DHT22;13825;53.496;10.020;2023-08-17T06:48:10;16.70;99.90
26051;DHT22;13825;53.496;10.020;2023-08-17T06:50:39;16.80;99.90
26051;DHT22;13825;53.496;10.020;2023-08-17T06:53:08;16.70;99.90
26051;DHT22;13825;53.496;10.020;2023-08-17T06:55:39;16.60;99.90
26051;DHT22;13825;53.496;10.020;2023-08-17T06:58:12;16.60;99.90
26051;DHT22;13825;53.496;10.020;2023-08-17T07:00:46;16.60;99.90
26051;DHT22;13825;53.496;10.020;2023-08-17T07:03:14;16.60;99.90
26051;DHT22;13825;53.496;10.020;2023-08-17T07:05:47;16.60;99.90
26051;DHT22;13825;53.496;10.020;2023-08-17T07:08:26;16.70;99.90
26051;DHT22;13825;53.496;10.020;2023-08-17T07:10:55;16.70;99.90
26051;DHT22;13825;53.496;10.020;2023-08-17T07:13:25;16.70;99.90
26051;DHT22;13825;53.496;10.020;2023-08-17T07:15:54;16.50;99.90
26051;DHT22;13825;53.496;10.020;2023-08-17T07:18:22;16.50;99.90
26051;DHT22;13825;53.496;10.020;2023-08-17T07:21:06;16.50;99.90
26051;DHT22;13825;53.496;10.020;2023-08-17T07:27:19;16.30;99.90
26051;DHT22;13825;53.496;10.020;2023-08-17T07:30:48;16.40;99.90
26051;DHT22;13825;53.496;10.020;2023-08-17T07:36:32;16.40;99.90
26051;DHT22;13825;53.496;10.020;2023-08-17T07:39:10;16.30;99.90
26051;DHT22;13825;53.496;10.020;2023-08-17T07:41:52;16.40;99.90
26051;DHT22;13825;53.496;10.020;2023-08-17T07:44:20;16.40;99.90
26051;DHT22;13825;53.496;10.020;2023-08-17T07:46:50;16.40;99.90
26051;DHT22;13825;53.496;10.020;2023-08-17T07:49:23;16.50;99.90
26051;DHT22;13825;53.496;10.020;2023-08-17T07:56:01;16.50;99.90
26051;DHT22;13825;53.496;10.020;2023-08-17T08:05:59;16.40;99.90
26051;DHT22;13825;53.496;10.020;2023-08-17T08:09:05;16.40;99.90
26051;DHT22;13825;53.496;10.020;2023-08-17T08:31:06;16.60;99.90
26051;DHT22;13825;53.496;10.020;2023-08-17T08:33:40;16.60;99.90
26051;DHT22;13825;53.496;10.020;2023-08-17T08:36:24;16.60;99.90
26051;DHT22;13825;53.496;10.020;2023-08-17T08:38:56;16.60;99.90
26051;DHT22;13825;53.496;10.020;2023-08-17T08:41:26;16.50;99.90
26051;DHT22;13825;53.496;10.020;2023-08-17T08:43:56;16.60;99.90
26051;DHT22;13825;53.496;10.020;2023-08-17T08:46:53;16.60;99.90
26051;DHT22;13825;53.496;10.020;2023-08-17T08:49:39;16.60;99.90
26051;DHT22;13825;53.496;10.020;2023-08-17T08:52:28;16.50;99.90
26051;DHT22;13825;53.496;10.020;2023-08-17T08:55:06;16.60;99.90
26051;DHT22;13825;53.496;10.020;2023-08-17T08:57:44;16.50;99.90
26051;DHT22;13825;53.496;10.020;2023-08-17T09:00:27;16.50;99.90
26051;DHT22;13825;53.496;10.020;2023-08-17T09:03:06;16.60;99.90
26051;DHT22;13825;53.496;10.020;2023-08-17T09:05:59;16.50;99.90
26051;DHT22;13825;53.496;10.020;2023-08-17T09:08:29;16.60;99.90
26051;DHT22;13825;53.496;10.020;2023-08-17T09:10:57;16.60;99.90
26051;DHT22;13825;53.496;10.020;2023-08-17T09:13:26;16.70;99.90
26051;DHT22;13825;53.496;10.020;2023-08-17T09:15:57;16.80;99.90
26051;DHT22;13825;53.496;10.020;2023-08-17T09:21:24;16.90;99.90
26051;DHT22;13825;53.496;10.020;2023-08-17T09:23:54;17.10;99.90
26051;DHT22;13825;53.496;10.020;2023-08-17T09:26:36;17.10;99.90
26051;DHT22;13825;53.496;10.020;2023-08-17T09:29:16;17.30;99.90
26051;DHT22;13825;53.496;10.020;2023-08-17T09:31:43;17.30;99.90
26051;DHT22;13825;53.496;10.020;2023-08-17T09:34:15;17.40;99.90
26051;DHT22;13825;53.496;10.020;2023-08-17T09:36:46;17.50;99.90
26051;DHT22;13825;53.496;10.020;2023-08-17T09:39:25;17.60;99.90
26051;DHT22;13825;53.496;10.020;2023-08-17T09:45:06;17.60;99.90
26051;DHT22;13825;53.496;10.020;2023-08-17T09:47:37;17.70;99.90
26051;DHT22;13825;53.496;10.020;2023-08-17T09:50:23;17.70;99.90
26051;DHT22;13825;53.496;10.020;2023-08-17T09:53:03;17.60;99.90
26051;DHT22;13825;53.496;10.020;2023-08-17T10:07:30;17.30;99.90
26051;DHT22;13825;53.496;10.020;2023-08-17T10:20:48;17.10;99.90
26051;DHT22;13825;53.496;10.020;2023-08-17T10:23:52;17.10;99.90
26051;DHT22;13825;53.496;10.020;2023-08-17T10:26:25;17.10;99.90
26051;DHT22;13825;53.496;10.020;2023-08-17T10:28:57;17.10;99.90
26051;DHT22;13825;53.496;10.020;2023-08-17T10:31:28;17.10;99.90
26051;DHT22;13825;53.496;10.020;2023-08-17T10:33:57;16.90;99.90
26051;DHT22;13825;53.496;10.020;2023-08-17T10:36:25;16.70;99.90
26051;DHT22;13825;53.496;10.020;2023-08-17T10:39:22;16.70;99.90
26051;DHT22;13825;53.496;10.020;2023-08-17T10:41:51;16.70;99.90
26051;DHT22;13825;53.496;10.020;2023-08-17T10:44:38;16.80;99.90
26051;DHT22;13825;53.496;10.020;2023-08-17T10:47:19;16.70;99.90
26051;DHT22;13825;53.496;10.020;2023-08-17T10:49:48;16.80;99.90
26051;DHT22;13825;53.496;10.020;2023-08-17T10:52:28;16.80;99.90
26051;DHT22;13825;53.496;10.020;2023-08-17T10:54:56;16.60;99.90
26051;DHT22;13825;53.496;10.020;2023-08-17T10:57:34;16.70;99.90
26051;DHT22;13825;53.496;10.020;2023-08-17T11:00:22;16.70;99.90
26051;DHT22;13825;53.496;10.020;2023-08-17T11:02:55;16.80;99.90
26051;DHT22;13825;53.496;10.020;2023-08-17T11:05:40;16.80;99.90
26051;DHT22;13825;53.496;10.020;2023-08-17T11:08:10;16.80;99.90
26051;DHT22;13825;53.496;10.020;2023-08-17T11:10:40;16.60;99.90
26051;DHT22;13825;53.496;10.020;2023-08-17T11:13:09;16.60;99.90
26051;DHT22;13825;53.496;10.020;2023-08-17T11:15:38;16.40;99.90
26051;DHT22;13825;53.496;10.020;2023-08-17T11:18:08;16.50;99.90
26051;DHT22;13825;53.496;10.020;2023-08-17T11:20:37;16.60;99.90
26051;DHT22;13825;53.496;10.020;2023-08-17T11:23:05;16.80;99.90
26051;DHT22;13825;53.496;10.020;2023-08-17T11:25:33;16.80;99.90
26051;DHT22;13825;53.496;10.020;2023-08-17T11:28:03;16.80;99.90
26051;DHT22;13825;53.496;10.020;2023-08-17T11:30:30;16.70;99.90
26051;DHT22;13825;53.496;10.020;2023-08-17T11:32:59;16.70;99.90
26051;DHT22;13825;53.496;10.020;2023-08-17T11:35:28;16.70;99.90
26051;DHT22;13825;53.496;10.020;2023-08-17T11:37:55;16.70;99.90
26051;DHT22;13825;53.496;10.020;2023-08-17T11:40:22;16.40;99.90
26051;DHT22;13825;53.496;10.020;2023-08-17T11:42:51;16.40;99.90
26051;DHT22;13825;53.496;10.020;2023-08-17T11:45:18;16.20;99.90
26051;DHT22;13825;53.496;10.020;2023-08-17T11:47:47;16.20;99.90
26051;DHT22;13825;53.496;10.020;2023-08-17T11:50:14;16.30;99.90
26051;DHT22;13825;53.496;10.020;2023-08-17T11:52:41;16.80;99.90
26051;DHT22;13825;53.496;10.020;2023-08-17T12:01:38;17.30;99.90
26051;DHT22;13825;53.496;10.020;2023-08-17T12:04:05;17.20;99.90
26051;DHT22;13825;53.496;10.020;2023-08-17T12:06:32;17.20;99.90
26051;DHT22;13825;53.496;10.020;2023-08-17T12:08:59;17.20;99.90
26051;DHT22;13825;53.496;10.020;2023-08-17T12:11:26;17.20;99.90
26051;DHT22;13825;53.496;10.020;2023-08-17T12:13:53;17.20;99.90
26051;DHT22;13825;53.496;10.020;2023-08-17T12:16:21;17.20;99.90
26051;DHT22;13825;53.496;10.020;2023-08-17T12:18:53;17.20;99.90
26051;DHT22;13825;53.496;10.020;2023-08-17T12:21:20;17.10;99.90
26051;DHT22;13825;53.496;10.020;2023-08-17T12:23:48;17.20;99.90
26051;DHT22;13825;53.496;10.020;2023-08-17T12:26:18;17.30;99.90
26051;DHT22;13825;53.496;10.020;2023-08-17T12:28:45;17.30;99.90
26051;DHT22;13825;53.496;10.020;2023-08-17T12:31:12;17.40;99.90
26051;DHT22;13825;53.496;10.020;2023-08-17T12:33:42;17.40;99.90
26051;DHT22;13825;53.496;10.020;2023-08-17T12:36:12;17.60;99.90
26051;DHT22;13825;53.496;10.020;2023-08-17T12:38:39;17.60;99.90
26051;DHT22;13825;53.496;10.020;2023-08-17T12:41:10;17.80;99.90
26051;DHT22;13825;53.496;10.020;2023-08-17T12:43:39;17.90;99.90
26051;DHT22;13825;53.496;10.020;2023-08-17T12:46:06;17.90;99.90
26051;DHT22;13825;53.496;10.020;2023-08-17T12:48:41;18.00;99.90
26051;DHT22;13825;53.496;10.020;2023-08-17T12:51:10;17.80;99.90
26051;DHT22;13825;53.496;10.020;2023-08-17T12:53:55;17.50;99.90
26051;DHT22;13825;53.496;10.020;2023-08-17T12:56:27;17.40;99.90
26051;DHT22;13825;53.496;10.020;2023-08-17T12:58:54;17.40;99.90
26051;DHT22;13825;53.496;10.020;2023-08-17T13:01:21;17.30;99.90
26051;DHT22;13825;53.496;10.020;2023-08-17T13:03:48;17.30;99.90
26051;DHT22;13825;53.496;10.020;2023-08-17T13:06:16;17.20;99.90
26051;DHT22;13825;53.496;10.020;2023-08-17T13:08:44;17.10;99.90
26051;DHT22;13825;53.496;10.020;2023-08-17T13:11:11;17.20;99.90
26051;DHT22;13825;53.496;10.020;2023-08-17T13:13:38;17.30;99.90
26051;DHT22;13825;53.496;10.020;2023-08-17T13:16:12;17.40;99.90
26051;DHT22;13825;53.496;10.020;2023-08-17T13:18:44;17.60;99.90
26051;DHT22;13825;53.496;10.020;2023-08-17T13:21:24;17.70;99.90
26051;DHT22;13825;53.496;10.020;2023-08-17T13:23:57;18.00;99.90
26051;DHT22;13825;53.496;10.020;2023-08-17T13:26:47;18.00;99.90
26051;DHT22;13825;53.496;10.020;2023-08-17T13:29:47;18.00;99.90
26051;DHT22;13825;53.496;10.020;2023-08-17T13:32:34;18.30;99.90
26051;DHT22;13825;53.496;10.020;2023-08-17T13:35:13;18.60;99.90
26051;DHT22;13825;53.496;10.020;2023-08-17T13:38:21;19.00;99.90
26051;DHT22;13825;53.496;10.020;2023-08-17T14:09:13;18.90;99.90
26051;DHT22;13825;53.496;10.020;2023-08-17T14:40:24;18.10;99.90
26051;DHT22;13825;53.496;10.020;2023-08-17T14:49:55;17.80;99.90
26051;DHT22;13825;53.496;10.020;2023-08-17T14:53:10;17.60;99.90
26051;DHT22;13825;53.496;10.020;2023-08-17T14:55:57;17.70;99.90
26051;DHT22;13825;53.496;10.020;2023-08-17T14:59:20;17.80;99.90
26051;DHT22;13825;53.496;10.020;2023-08-17T15:02:04;17.80;99.90
26051;DHT22;13825;53.496;10.020;2023-08-17T15:04:50;17.70;99.90
26051;DHT22;13825;53.496;10.020;2023-08-17T15:10:19;18.00;99.90
26051;DHT22;13825;53.496;10.020;2023-08-17T15:12:48;17.90;99.90
26051;DHT22;13825;53.496;10.020;2023-08-17T15:15:15;17.90;99.90
26051;DHT22;13825;53.496;10.020;2023-08-17T15:17:42;17.90;99.90
26051;DHT22;13825;53.496;10.020;2023-08-17T15:20:09;17.80;99.90
26051;DHT22;13825;53.496;10.020;2023-08-17T15:22:36;17.80;99.90
26051;DHT22;13825;53.496;10.020;2023-08-17T15:25:15;17.70;99.90
26051;DHT22;13825;53.496;10.020;2023-08-17T15:28:14;17.50;99.90
26051;DHT22;13825;53.496;10.020;2023-08-17T15:31:13;17.50;99.90
26051;DHT22;13825;53.496;10.020;2023-08-17T15:33:56;17.40;99.90
26051;DHT22;13825;53.496;10.020;2023-08-17T15:36:23;17.40;99.90
26051;DHT22;13825;53.496;10.020;2023-08-17T15:38:57;17.30;99.90
26051;DHT22;13825;53.496;10.020;2023-08-17T15:41:50;17.20;99.90
26051;DHT22;13825;53.496;10.020;2023-08-17T15:44:25;17.10;99.90
26051;DHT22;13825;53.496;10.020;2023-08-17T15:47:02;17.00;99.90
26051;DHT22;13825;53.496;10.020;2023-08-17T15:49:34;16.90;99.90
26051;DHT22;13825;53.496;10.020;2023-08-17T15:52:04;16.80;99.90
26051;DHT22;13825;53.496;10.020;2023-08-17T15:54:31;16.90;99.90
26051;DHT22;13825;53.496;10.020;2023-08-17T15:56:58;16.80;99.90
26051;DHT22;13825;53.496;10.020;2023-08-17T15:59:27;16.80;99.90
26051;DHT22;13825;53.496;10.020;2023-08-17T16:01:54;16.80;99.90
26051;DHT22;13825;53.496;10.020;2023-08-17T16:04:21;16.80;99.90
26051;DHT22;13825;53.496;10.020;2023-08-17T16:06:55;16.80;99.90
26051;DHT22;13825;53.496;10.020;2023-08-17T16:09:38;16.80;99.90
26051;DHT22;13825;53.496;10.020;2023-08-17T16:12:27;16.80;99.90
26051;DHT22;13825;53.496;10.020;2023-08-17T16:15:23;16.90;99.90
26051;DHT22;13825;53.496;10.020;2023-08-17T16:17:58;16.80;99.90
26051;DHT22;13825;53.496;10.020;2023-08-17T16:20:45;16.80;99.90
26051;DHT22;13825;53.496;10.020;2023-08-17T16:23:37;16.80;99.90
26051;DHT22;13825;53.496;10.020;2023-08-17T16:27:08;16.80;99.90
26051;DHT22;13825;53.496;10.020;2023-08-17T16:33:11;16.80;99.90
26051;DHT22;13825;53.496;10.020;2023-08-17T16:39:23;16.80;99.90
26051;DHT22;13825;53.496;10.020;2023-08-17T16:50:58;16.80;99.90
26051;DHT22;13825;53.496;10.020;2023-08-17T16:53:25;16.80;99.90
26051;DHT22;13825;53.496;10.020;2023-08-17T16:56:01;16.80;99.90
26051;DHT22;13825;53.496;10.020;2023-08-17T16:58:39;16.90;99.90
26051;DHT22;13825;53.496;10.020;2023-08-17T17:01:14;16.80;99.90
26051;DHT22;13825;53.496;10.020;2023-08-17T17:03:49;16.80;99.90
26051;DHT22;13825;53.496;10.020;2023-08-17T17:06:19;16.80;99.90
26051;DHT22;13825;53.496;10.020;2023-08-17T17:08:46;16.90;99.90
26051;DHT22;13825;53.496;10.020;2023-08-17T17:11:13;16.90;99.90
26051;DHT22;13825;53.496;10.020;2023-08-17T17:13:40;16.90;99.90
26051;DHT22;13825;53.496;10.020;2023-08-17T17:16:07;16.90;99.90
26051;DHT22;13825;53.496;10.020;2023-08-17T17:18:34;17.00;99.90
26051;DHT22;13825;53.496;10.020;2023-08-17T17:21:00;17.00;99.90
26051;DHT22;13825;53.496;10.020;2023-08-17T17:23:29;17.00;99.90
26051;DHT22;13825;53.496;10.020;2023-08-17T17:25:56;17.00;99.90
26051;DHT22;13825;53.496;10.020;2023-08-17T17:28:23;17.00;99.90
26051;DHT22;13825;53.496;10.020;2023-08-17T17:30:50;17.00;99.90
26051;DHT22;13825;53.496;10.020;2023-08-17T17:33:16;17.00;99.90
26051;DHT22;13825;53.496;10.020;2023-08-17T17:35:43;16.90;99.90
26051;DHT22;13825;53.496;10.020;2023-08-17T17:38:10;16.90;99.90
26051;DHT22;13825;53.496;10.020;2023-08-17T17:40:40;16.90;99.90
26051;DHT22;13825;53.496;10.020;2023-08-17T17:43:07;16.90;99.90
26051;DHT22;13825;53.496;10.020;2023-08-17T17:45:33;16.90;99.90
26051;DHT22;13825;53.496;10.020;2023-08-17T17:48:00;16.90;99.90
26051;DHT22;13825;53.496;10.020;2023-08-17T17:50:27;16.90;99.90
26051;DHT22;13825;53.496;10.020;2023-08-17T17:52:54;16.90;99.90
26051;DHT22;13825;53.496;10.020;2023-08-17T17:55:21;16.90;99.90
26051;DHT22;13825;53.496;10.020;2023-08-17T17:57:50;16.90;99.90
26051;DHT22;13825;53.496;10.020;2023-08-17T18:00:17;16.90;99.90
26051;DHT22;13825;53.496;10.020;2023-08-17T18:02:44;16.90;99.90
26051;DHT22;13825;53.496;10.020;2023-08-17T18:05:11;16.90;99.90
26051;DHT22;13825;53.496;10.020;2023-08-17T18:07:40;16.90;99.90
26051;DHT22;13825;53.496;10.020;2023-08-17T18:10:15;16.90;99.90
26051;DHT22;13825;53.496;10.020;2023-08-17T18:12:55;16.90;99.90
26051;DHT22;13825;53.496;10.020;2023-08-17T18:15:25;16.80;99.90
26051;DHT22;13825;53.496;10.020;2023-08-17T18:17:55;16.80;99.90
26051;DHT22;13825;53.496;10.020;2023-08-17T18:20:28;16.80;99.90
26051;DHT22;13825;53.496;10.020;2023-08-17T18:23:05;16.80;99.90